createdAt,value
2017-11-13T00:01:23.330Z,3.60
2017-11-13T00:03:25.990Z,3.50
2017-11-13T00:05:29.427Z,3.50
2017-11-13T00:07:32.080Z,3.50
2017-11-13T00:09:34.752Z,3.50
2017-11-13T00:11:37.433Z,3.50
2017-11-13T00:13:40.078Z,3.50
2017-11-13T00:15:43.518Z,3.60
2017-11-13T00:17:46.288Z,3.60
2017-11-13T00:19:48.945Z,3.50
2017-11-13T00:21:51.595Z,3.60
2017-11-13T00:23:54.263Z,3.60
2017-11-13T00:25:56.925Z,3.60
2017-11-13T00:27:59.580Z,3.60
2017-11-13T00:30:02.292Z,3.50
2017-11-13T00:32:04.963Z,3.50
2017-11-13T00:34:07.629Z,3.50
2017-11-13T00:36:10.450Z,3.50
2017-11-13T00:38:13.974Z,3.50
2017-11-13T00:40:16.647Z,3.50
2017-11-13T00:42:19.307Z,3.40
2017-11-13T00:44:21.964Z,3.40
2017-11-13T00:46:25.408Z,3.40
2017-11-13T00:48:28.067Z,3.40
2017-11-13T00:50:30.718Z,3.40
2017-11-13T00:52:34.150Z,3.50
2017-11-13T00:54:36.807Z,3.40
2017-11-13T00:56:39.449Z,3.50
2017-11-13T00:58:42.896Z,3.70
2017-11-13T01:00:45.532Z,3.70
2017-11-13T01:02:48.942Z,3.60
2017-11-13T01:04:51.627Z,3.60
2017-11-13T01:06:54.279Z,3.50
2017-11-13T01:08:57.694Z,3.50
2017-11-13T01:11:00.508Z,3.50
2017-11-13T01:13:03.177Z,3.60
2017-11-13T01:15:06.072Z,3.50
2017-11-13T01:17:08.712Z,3.50
2017-11-13T01:19:11.372Z,3.50
2017-11-13T01:21:14.064Z,3.60
2017-11-13T01:23:16.709Z,3.60
2017-11-13T01:25:20.137Z,3.70
2017-11-13T01:27:22.823Z,3.60
2017-11-13T01:29:25.485Z,3.60
2017-11-13T01:31:28.136Z,3.70
2017-11-13T01:33:31.776Z,3.60
2017-11-13T01:35:34.432Z,3.60
2017-11-13T01:37:37.117Z,3.60
2017-11-13T01:39:39.885Z,3.60
2017-11-13T01:41:42.527Z,3.60
2017-11-13T01:43:45.969Z,3.50
2017-11-13T01:45:48.644Z,3.50
2017-11-13T01:47:51.337Z,3.40
2017-11-13T01:49:54.029Z,3.40
2017-11-13T01:51:56.776Z,3.40
2017-11-13T01:53:59.479Z,3.30
2017-11-13T01:56:02.237Z,3.30
2017-11-13T01:58:04.904Z,3.30
2017-11-13T02:00:07.624Z,3.30
2017-11-13T02:02:10.292Z,3.30
2017-11-13T02:04:12.980Z,3.30
2017-11-13T02:06:15.731Z,3.30
2017-11-13T02:08:18.471Z,3.30
2017-11-13T02:10:21.162Z,3.40
2017-11-13T02:12:23.935Z,3.40
2017-11-13T02:14:26.630Z,3.40
2017-11-13T02:16:29.352Z,3.40
2017-11-13T02:18:32.834Z,3.60
2017-11-13T02:20:35.560Z,3.50
2017-11-13T02:22:38.231Z,3.60
2017-11-13T02:24:40.960Z,3.60
2017-11-13T02:26:43.679Z,3.60
2017-11-13T02:28:46.378Z,3.70
2017-11-13T02:30:49.224Z,3.80
2017-11-13T02:32:52.664Z,4.10
2017-11-13T02:34:55.366Z,4.00
2017-11-13T02:36:58.104Z,4.10
2017-11-13T02:39:00.857Z,4.20
2017-11-13T02:41:03.673Z,4.20
2017-11-13T02:43:06.434Z,4.30
2017-11-13T02:45:09.123Z,4.20
2017-11-13T02:47:11.852Z,4.10
2017-11-13T02:49:15.320Z,4.10
2017-11-13T02:51:18.025Z,4.10
2017-11-13T02:53:21.521Z,4.10
2017-11-13T02:55:24.981Z,4.20
2017-11-13T02:57:27.692Z,4.10
2017-11-13T02:59:31.176Z,4.20
2017-11-13T03:01:34.614Z,4.30
2017-11-13T03:03:37.276Z,4.30
2017-11-13T03:05:39.965Z,4.30
2017-11-13T03:07:42.649Z,4.40
2017-11-13T03:09:45.315Z,4.40
2017-11-13T03:11:47.995Z,4.50
2017-11-13T03:13:50.677Z,4.60
2017-11-13T03:15:53.381Z,4.60
2017-11-13T03:17:56.053Z,4.60
2017-11-13T03:19:58.741Z,4.70
2017-11-13T03:22:01.482Z,4.70
2017-11-13T03:24:04.260Z,4.70
2017-11-13T03:26:07.036Z,4.70
2017-11-13T03:28:09.734Z,4.70
2017-11-13T03:30:12.465Z,4.60
2017-11-13T03:32:15.923Z,4.60
2017-11-13T03:34:18.591Z,4.60
2017-11-13T03:36:21.247Z,4.60
2017-11-13T03:38:23.913Z,4.60
2017-11-13T03:40:26.591Z,4.70
2017-11-13T03:42:29.364Z,4.70
2017-11-13T03:44:32.077Z,4.80
2017-11-13T03:46:34.756Z,4.80
2017-11-13T03:48:37.420Z,4.80
2017-11-13T03:50:40.185Z,4.70
2017-11-13T03:52:42.867Z,4.60
2017-11-13T03:54:45.561Z,4.60
2017-11-13T03:56:48.247Z,4.60
2017-11-13T03:58:52.569Z,4.60
2017-11-13T04:00:55.236Z,4.60
2017-11-13T04:02:57.888Z,4.70
2017-11-13T04:05:00.580Z,4.70
2017-11-13T04:07:03.244Z,4.70
2017-11-13T04:09:05.895Z,4.60
2017-11-13T04:11:08.602Z,4.60
2017-11-13T04:13:11.284Z,4.50
2017-11-13T04:15:13.968Z,4.50
2017-11-13T04:17:16.719Z,4.50
2017-11-13T04:19:19.376Z,4.40
2017-11-13T04:21:22.072Z,4.40
2017-11-13T04:23:24.756Z,4.40
2017-11-13T04:25:27.408Z,4.40
2017-11-13T04:27:30.109Z,4.50
2017-11-13T04:29:32.754Z,4.50
2017-11-13T04:31:35.438Z,4.50
2017-11-13T04:33:38.533Z,4.50
2017-11-13T04:35:41.198Z,4.50
2017-11-13T04:37:43.884Z,4.60
2017-11-13T04:39:46.655Z,4.70
2017-11-13T04:41:49.319Z,4.70
2017-11-13T04:43:51.990Z,4.80
2017-11-13T04:45:54.656Z,4.80
2017-11-13T04:47:58.088Z,4.80
2017-11-13T04:50:00.762Z,4.80
2017-11-13T04:52:03.403Z,4.80
2017-11-13T04:54:06.924Z,4.90
2017-11-13T04:56:09.604Z,4.80
2017-11-13T04:58:12.381Z,4.80
2017-11-13T05:00:15.038Z,4.90
2017-11-13T05:02:17.705Z,4.90
2017-11-13T05:04:21.148Z,4.80
2017-11-13T05:06:23.843Z,4.80
2017-11-13T05:08:26.581Z,4.80
2017-11-13T05:10:29.292Z,4.80
2017-11-13T05:12:32.033Z,4.80
2017-11-13T05:14:34.801Z,4.70
2017-11-13T05:16:37.486Z,4.70
2017-11-13T05:18:40.178Z,4.70
2017-11-13T05:20:43.147Z,4.60
2017-11-13T05:22:46.796Z,4.60
2017-11-13T05:24:49.559Z,4.50
2017-11-13T05:26:52.298Z,4.40
2017-11-13T05:28:54.989Z,4.40
2017-11-13T05:30:57.654Z,4.30
2017-11-13T05:33:00.365Z,4.40
2017-11-13T05:35:03.021Z,4.50
2017-11-13T05:37:05.684Z,4.50
2017-11-13T05:39:08.327Z,4.50
2017-11-13T05:41:11.001Z,4.50
2017-11-13T05:43:14.445Z,4.60
2017-11-13T05:45:17.105Z,4.60
2017-11-13T05:47:19.818Z,4.60
2017-11-13T05:49:22.569Z,4.50
2017-11-13T05:51:25.216Z,4.50
2017-11-13T05:53:28.654Z,4.30
2017-11-13T05:55:31.452Z,4.30
2017-11-13T05:57:34.130Z,4.30
2017-11-13T05:59:37.074Z,4.20
2017-11-13T06:01:39.772Z,4.20
2017-11-13T06:03:42.443Z,4.20
2017-11-13T06:05:45.113Z,4.20
2017-11-13T06:07:47.884Z,4.10
2017-11-13T06:09:50.762Z,4.10
2017-11-13T06:11:53.614Z,4.00
2017-11-13T06:13:57.060Z,4.00
2017-11-13T06:15:59.693Z,4.00
2017-11-13T06:18:02.353Z,4.00
2017-11-13T06:20:05.799Z,3.90
2017-11-13T06:22:08.443Z,3.90
2017-11-13T06:24:11.118Z,3.90
2017-11-13T06:26:13.790Z,3.90
2017-11-13T06:28:16.488Z,3.80
2017-11-13T06:30:19.284Z,3.70
2017-11-13T06:32:21.935Z,3.70
2017-11-13T06:34:24.587Z,3.70
2017-11-13T06:36:28.045Z,3.70
2017-11-13T06:38:31.462Z,3.70
2017-11-13T06:40:34.188Z,3.70
2017-11-13T06:42:36.902Z,3.70
2017-11-13T06:44:40.326Z,3.70
2017-11-13T06:46:43.775Z,3.70
2017-11-13T06:48:46.451Z,3.70
2017-11-13T06:50:49.103Z,3.70
2017-11-13T06:52:51.761Z,3.70
2017-11-13T06:54:55.203Z,3.70
2017-11-13T06:56:57.948Z,3.70
2017-11-13T06:59:00.608Z,3.70
2017-11-13T07:01:03.403Z,3.70
2017-11-13T07:03:06.070Z,3.70
2017-11-13T07:05:08.740Z,3.70
2017-11-13T07:07:11.436Z,3.70
2017-11-13T07:09:14.104Z,3.70
2017-11-13T07:11:16.758Z,3.70
2017-11-13T07:13:20.241Z,3.70
2017-11-13T07:15:23.670Z,3.70
2017-11-13T07:17:26.330Z,3.70
2017-11-13T07:19:29.772Z,3.70
2017-11-13T07:21:33.243Z,3.80
2017-11-13T07:23:35.898Z,3.80
2017-11-13T07:25:38.613Z,3.80
2017-11-13T07:27:41.267Z,3.80
2017-11-13T07:29:43.921Z,3.90
2017-11-13T07:31:46.613Z,4.00
2017-11-13T07:33:49.296Z,4.00
2017-11-13T07:35:51.954Z,4.00
2017-11-13T07:37:54.637Z,4.10
2017-11-13T07:39:57.325Z,4.20
2017-11-13T07:42:00.019Z,4.20
2017-11-13T07:44:02.775Z,4.30
2017-11-13T07:46:05.554Z,4.60
2017-11-13T07:48:08.226Z,4.70
2017-11-13T07:50:10.896Z,4.80
2017-11-13T07:52:14.045Z,4.90
2017-11-13T07:54:16.704Z,5.00
2017-11-13T07:56:19.355Z,5.20
2017-11-13T07:58:22.252Z,5.80
2017-11-13T08:00:24.956Z,6.30
2017-11-13T08:02:27.625Z,6.10
2017-11-13T08:04:30.320Z,5.70
2017-11-13T08:06:33.719Z,5.70
2017-11-13T08:08:37.133Z,5.50
2017-11-13T08:10:39.821Z,5.50
2017-11-13T08:12:42.576Z,5.50
2017-11-13T08:14:45.231Z,5.60
2017-11-13T08:16:48.674Z,5.50
2017-11-13T08:18:51.342Z,5.50
2017-11-13T08:20:54.006Z,5.40
2017-11-13T08:22:56.712Z,5.30
2017-11-13T08:24:59.404Z,5.30
2017-11-13T08:27:02.080Z,5.40
2017-11-13T08:29:04.803Z,5.80
2017-11-13T08:31:07.469Z,5.90
2017-11-13T08:33:10.923Z,6.50
2017-11-13T08:35:13.679Z,6.50
2017-11-13T08:37:16.368Z,6.20
2017-11-13T08:39:19.042Z,6.70
2017-11-13T08:41:21.799Z,7.90
2017-11-13T08:43:24.449Z,8.40
2017-11-13T08:45:27.874Z,9.40
2017-11-13T08:47:30.594Z,9.30
2017-11-13T08:49:33.244Z,9.00
2017-11-13T08:51:35.904Z,9.50
2017-11-13T08:53:38.676Z,9.90
2017-11-13T08:55:41.381Z,10.10
2017-11-13T08:57:44.034Z,10.50
2017-11-13T08:59:46.767Z,10.20
2017-11-13T09:01:50.196Z,8.70
2017-11-13T09:03:52.848Z,8.60
2017-11-13T09:05:56.304Z,9.80
2017-11-13T09:07:58.951Z,9.80
2017-11-13T09:10:01.607Z,9.80
2017-11-13T09:12:04.344Z,9.20
2017-11-13T09:14:07.017Z,9.10
2017-11-13T09:16:09.689Z,9.80
2017-11-13T09:18:12.461Z,9.90
2017-11-13T09:20:15.407Z,9.50
2017-11-13T09:22:18.067Z,9.60
2017-11-13T09:24:20.776Z,10.20
2017-11-13T09:26:23.452Z,10.10
2017-11-13T09:28:26.175Z,9.30
2017-11-13T09:30:29.629Z,8.20
2017-11-13T09:32:32.278Z,8.10
2017-11-13T09:34:34.936Z,8.10
2017-11-13T09:36:37.675Z,8.30
2017-11-13T09:38:40.372Z,8.20
2017-11-13T09:40:44.021Z,9.00
2017-11-13T09:42:46.924Z,8.90
2017-11-13T09:44:49.705Z,10.60
2017-11-13T09:46:52.452Z,11.20
2017-11-13T09:48:55.468Z,11.70
2017-11-13T09:50:58.234Z,11.80
2017-11-13T09:53:00.958Z,11.30
2017-11-13T09:55:04.475Z,9.70
2017-11-13T09:57:07.275Z,9.60
2017-11-13T09:59:09.995Z,9.70
2017-11-13T10:01:12.764Z,9.90
2017-11-13T10:03:15.636Z,9.40
2017-11-13T10:05:18.998Z,10.10
2017-11-13T10:07:21.751Z,10.00
2017-11-13T10:09:25.233Z,10.20
2017-11-13T10:11:28.872Z,10.70
2017-11-13T10:13:31.754Z,10.70
2017-11-13T10:15:34.837Z,10.90
2017-11-13T10:17:37.706Z,11.60
2017-11-13T10:19:40.431Z,11.20
2017-11-13T10:21:43.187Z,10.40
2017-11-13T10:23:48.006Z,10.00
2017-11-13T10:25:50.884Z,10.00
2017-11-13T10:27:53.690Z,10.10
2017-11-13T10:29:56.644Z,11.20
2017-11-13T10:31:59.645Z,11.60
2017-11-13T10:34:02.375Z,12.20
2017-11-13T10:36:05.896Z,12.00
2017-11-13T10:38:08.619Z,12.00
2017-11-13T10:40:11.321Z,12.10
2017-11-13T10:42:14.818Z,12.40
2017-11-13T10:44:18.278Z,10.50
2017-11-13T10:46:21.022Z,10.50
2017-11-13T10:48:23.825Z,9.80
2017-11-13T10:50:26.696Z,9.40
2017-11-13T10:52:29.891Z,9.40
2017-11-13T10:54:33.440Z,9.50
2017-11-13T10:56:36.350Z,9.50
2017-11-13T10:58:39.163Z,9.40
2017-11-13T11:00:42.112Z,9.60
2017-11-13T11:02:44.991Z,9.70
2017-11-13T11:04:47.765Z,9.60
2017-11-13T11:06:50.669Z,10.00
2017-11-13T11:08:53.430Z,10.20
2017-11-13T11:10:56.232Z,10.10
2017-11-13T11:12:59.191Z,9.70
2017-11-13T11:15:02.996Z,9.40
2017-11-13T11:19:54.633Z,9.90
2017-11-13T11:22:16.251Z,10.00
2017-11-13T11:24:18.969Z,9.80
2017-11-13T11:26:33.014Z,10.00
2017-11-13T11:28:53.611Z,10.30
2017-11-13T11:31:09.462Z,9.80
2017-11-13T11:33:14.922Z,9.80
2017-11-13T11:35:17.918Z,10.10
2017-11-13T11:37:25.266Z,10.20
2017-11-13T11:39:28.078Z,10.10
2017-11-13T11:41:30.820Z,10.00
2017-11-13T11:43:33.703Z,9.90
2017-11-13T11:45:42.113Z,10.00
2017-11-13T11:47:59.702Z,9.90
2017-11-13T11:50:03.345Z,10.30
2017-11-13T11:52:06.222Z,10.30
2017-11-13T11:54:18.929Z,10.50
2017-11-13T11:56:25.603Z,10.10
2017-11-13T11:58:28.584Z,9.70
2017-11-13T12:00:31.361Z,9.90
2017-11-13T12:02:34.120Z,10.10
2017-11-13T12:04:37.225Z,10.40
2017-11-13T12:06:40.106Z,10.50
2017-11-13T12:08:43.294Z,10.60
2017-11-13T12:10:46.033Z,10.20
2017-11-13T12:12:49.518Z,9.90
2017-11-13T12:14:53.298Z,10.00
2017-11-13T12:16:56.174Z,10.00
2017-11-13T12:18:58.922Z,9.80
2017-11-13T12:21:01.732Z,9.50
2017-11-13T12:23:04.584Z,9.30
2017-11-13T12:25:07.289Z,9.30
2017-11-13T12:27:10.039Z,9.40
2017-11-13T12:29:12.943Z,9.50
2017-11-13T12:31:15.818Z,9.70
2017-11-13T12:33:18.515Z,9.80
2017-11-13T12:35:21.284Z,9.70
2017-11-13T12:37:24.427Z,9.70
2017-11-13T12:39:27.252Z,9.50
2017-11-13T12:41:29.961Z,9.50
2017-11-13T12:43:33.430Z,9.70
2017-11-13T12:45:36.197Z,9.70
2017-11-13T12:47:38.952Z,9.70
2017-11-13T12:49:41.707Z,9.70
2017-11-13T12:51:44.537Z,9.70
2017-11-13T12:53:47.371Z,9.70
2017-11-13T12:55:50.168Z,9.70
2017-11-13T12:57:52.877Z,9.70
2017-11-13T12:59:55.828Z,9.80
2017-11-13T13:01:58.606Z,9.80
2017-11-13T13:04:01.336Z,9.70
2017-11-13T13:06:04.199Z,9.70
2017-11-13T13:08:06.968Z,9.70
2017-11-13T13:10:09.713Z,9.70
2017-11-13T13:12:12.498Z,9.70
2017-11-13T13:14:15.249Z,9.70
2017-11-13T13:16:18.077Z,9.70
2017-11-13T13:18:20.940Z,9.80
2017-11-13T13:20:23.646Z,10.00
2017-11-13T13:22:26.388Z,10.10
2017-11-13T13:24:29.094Z,10.30
2017-11-13T13:26:31.948Z,10.50
2017-11-13T13:28:34.756Z,10.70
2017-11-13T13:30:38.241Z,10.00
2017-11-13T13:32:41.004Z,10.00
2017-11-13T13:34:43.781Z,9.80
2017-11-13T13:36:46.561Z,9.70
2017-11-13T13:38:49.278Z,9.80
2017-11-13T13:40:52.021Z,9.90
2017-11-13T13:42:54.718Z,9.90
2017-11-13T13:44:57.414Z,9.70
2017-11-13T13:47:00.143Z,9.40
2017-11-13T13:49:02.866Z,9.20
2017-11-13T13:51:05.587Z,9.10
2017-11-13T13:53:08.342Z,9.10
2017-11-13T13:55:11.854Z,9.20
2017-11-13T13:57:14.566Z,9.20
2017-11-13T13:59:17.298Z,9.30
2017-11-13T14:01:20.772Z,9.10
2017-11-13T14:03:24.249Z,9.00
2017-11-13T14:05:26.993Z,9.00
2017-11-13T14:07:29.725Z,9.00
2017-11-13T14:09:33.269Z,9.00
2017-11-13T14:11:36.002Z,9.00
2017-11-13T14:13:39.474Z,8.90
2017-11-13T14:15:42.189Z,8.90
2017-11-13T14:17:44.933Z,9.00
2017-11-13T14:19:47.657Z,8.90
2017-11-13T14:21:50.368Z,8.90
2017-11-13T14:23:53.130Z,8.80
2017-11-13T14:25:55.870Z,8.80
2017-11-13T14:27:59.353Z,8.70
2017-11-13T14:30:02.870Z,8.60
2017-11-13T14:32:05.598Z,8.60
2017-11-13T14:34:08.309Z,8.50
2017-11-13T14:36:11.823Z,8.60
2017-11-13T14:38:14.551Z,8.50
2017-11-13T14:40:17.268Z,8.60
2017-11-13T14:42:20.777Z,8.40
2017-11-13T14:44:23.486Z,8.40
2017-11-13T14:46:26.192Z,8.40
2017-11-13T14:48:28.926Z,8.30
2017-11-13T14:50:31.631Z,8.20
2017-11-13T14:52:34.358Z,8.00
2017-11-13T14:54:37.091Z,7.90
2017-11-13T14:56:39.799Z,7.80
2017-11-13T14:58:43.350Z,7.60
2017-11-13T15:00:46.123Z,7.60
2017-11-13T15:02:48.887Z,7.60
2017-11-13T15:04:51.594Z,7.50
2017-11-13T15:06:54.266Z,7.60
2017-11-13T15:08:56.932Z,7.70
2017-11-13T15:10:59.611Z,8.00
2017-11-13T15:13:02.304Z,8.20
2017-11-13T15:15:05.031Z,8.40
2017-11-13T15:17:07.821Z,8.60
2017-11-13T15:19:10.507Z,8.60
2017-11-13T15:21:13.174Z,8.40
2017-11-13T15:23:15.823Z,8.30
2017-11-13T15:25:20.031Z,8.10
2017-11-13T15:27:23.445Z,8.00
2017-11-13T15:29:26.122Z,8.00
2017-11-13T15:31:28.817Z,7.90
2017-11-13T15:33:31.486Z,7.90
2017-11-13T15:35:34.182Z,7.90
2017-11-13T15:37:36.833Z,7.80
2017-11-13T15:39:39.496Z,7.80
2017-11-13T15:41:42.326Z,7.70
2017-11-13T15:43:45.071Z,7.70
2017-11-13T15:45:47.738Z,7.70
2017-11-13T15:47:50.428Z,7.70
2017-11-13T15:49:53.090Z,7.70
2017-11-13T15:51:55.766Z,7.60
2017-11-13T15:53:58.443Z,7.60
2017-11-13T15:56:01.094Z,7.60
2017-11-13T15:58:04.524Z,7.60
2017-11-13T16:00:07.240Z,7.60
2017-11-13T16:02:09.896Z,7.60
2017-11-13T16:04:12.548Z,7.60
2017-11-13T16:06:15.228Z,7.60
2017-11-13T16:08:17.897Z,7.60
2017-11-13T16:10:20.549Z,7.70
2017-11-13T16:12:23.236Z,7.70
2017-11-13T16:14:25.922Z,7.70
2017-11-13T16:16:28.602Z,7.60
2017-11-13T16:18:31.288Z,7.50
2017-11-13T16:20:33.930Z,7.20
2017-11-13T16:22:36.591Z,7.00
2017-11-13T16:24:40.041Z,6.90
2017-11-13T16:26:42.736Z,6.80
2017-11-13T16:28:45.682Z,6.80
2017-11-13T16:30:48.462Z,6.70
2017-11-13T16:32:51.238Z,6.70
2017-11-13T16:34:53.918Z,6.60
2017-11-13T16:36:56.710Z,6.60
2017-11-13T16:38:59.390Z,6.50
2017-11-13T16:41:02.054Z,6.50
2017-11-13T16:43:04.718Z,6.50
2017-11-13T16:45:07.382Z,6.40
2017-11-13T16:47:10.073Z,6.40
2017-11-13T16:49:12.728Z,6.30
2017-11-13T16:51:16.260Z,6.20
2017-11-13T16:53:18.941Z,6.10
2017-11-13T16:55:21.612Z,6.10
2017-11-13T16:57:24.284Z,6.10
2017-11-13T16:59:26.957Z,6.10
2017-11-13T17:01:29.639Z,6.20
2017-11-13T17:03:32.408Z,6.20
2017-11-13T17:05:35.185Z,6.20
2017-11-13T17:07:38.147Z,6.00
2017-11-13T17:09:40.829Z,6.00
2017-11-13T17:11:44.643Z,5.90
2017-11-13T17:13:47.302Z,5.80
2017-11-13T17:15:49.961Z,5.80
2017-11-13T17:17:53.409Z,5.80
2017-11-13T17:19:56.081Z,5.80
2017-11-13T17:21:58.748Z,5.80
2017-11-13T17:24:01.514Z,5.80
2017-11-13T17:26:04.149Z,5.80
2017-11-13T17:28:06.842Z,5.80
2017-11-13T17:30:10.310Z,5.80
2017-11-13T17:32:13.762Z,5.80
2017-11-13T17:34:16.427Z,5.80
2017-11-13T17:36:19.120Z,5.80
2017-11-13T17:38:21.817Z,5.80
2017-11-13T17:40:24.473Z,5.80
2017-11-13T17:42:27.164Z,5.90
2017-11-13T17:44:29.828Z,6.00
2017-11-13T17:46:32.482Z,6.00
2017-11-13T17:48:35.275Z,6.00
2017-11-13T17:50:37.943Z,5.90
2017-11-13T17:52:40.668Z,5.90
2017-11-13T17:54:43.440Z,5.90
2017-11-13T17:56:46.234Z,5.90
2017-11-13T17:58:48.885Z,5.80
2017-11-13T18:00:51.675Z,5.80
2017-11-13T18:02:54.346Z,5.80
2017-11-13T18:04:56.998Z,5.90
2017-11-13T18:06:59.692Z,5.90
2017-11-13T18:09:02.534Z,5.90
2017-11-13T18:11:05.685Z,5.90
2017-11-13T18:13:08.377Z,5.90
2017-11-13T18:15:11.824Z,6.00
2017-11-13T18:17:14.473Z,6.00
2017-11-13T18:19:17.195Z,6.00
2017-11-13T18:21:19.905Z,6.10
2017-11-13T18:23:23.462Z,6.00
2017-11-13T18:25:26.268Z,6.00
2017-11-13T18:27:28.949Z,5.90
2017-11-13T18:29:32.368Z,5.80
2017-11-13T18:31:35.064Z,5.80
2017-11-13T18:33:37.741Z,5.70
2017-11-13T18:35:40.411Z,5.70
2017-11-13T18:37:43.206Z,5.60
2017-11-13T18:39:45.849Z,5.60
2017-11-13T18:41:49.747Z,5.50
2017-11-13T18:43:53.236Z,5.40
2017-11-13T18:45:56.778Z,5.50
2017-11-13T18:47:59.826Z,5.50
2017-11-13T18:50:02.542Z,5.50
2017-11-13T18:52:05.208Z,5.60
2017-11-13T18:54:07.884Z,5.50
2017-11-13T18:56:10.563Z,5.50
2017-11-13T18:58:13.590Z,5.40
2017-11-13T19:00:16.307Z,5.30
2017-11-13T19:02:19.097Z,5.20
2017-11-13T19:04:21.901Z,5.10
2017-11-13T19:06:24.639Z,5.10
2017-11-13T19:08:27.353Z,5.00
2017-11-13T19:10:30.004Z,5.00
2017-11-13T19:12:32.689Z,4.90
2017-11-13T19:14:35.421Z,4.90
2017-11-13T19:16:39.641Z,4.90
2017-11-13T19:18:47.037Z,4.90
2017-11-13T19:20:50.046Z,4.90
2017-11-13T19:22:52.837Z,4.90
2017-11-13T19:24:55.538Z,4.80
2017-11-13T19:26:58.566Z,4.80
2017-11-13T19:29:01.253Z,4.80
2017-11-13T19:31:03.983Z,4.70
2017-11-13T19:33:06.877Z,4.70
2017-11-13T19:35:10.330Z,4.60
2017-11-13T19:37:13.376Z,4.60
2017-11-13T19:39:16.172Z,4.60
2017-11-13T19:41:19.084Z,4.70
2017-11-13T19:43:21.852Z,4.50
2017-11-13T19:45:24.696Z,4.50
2017-11-13T19:47:27.388Z,4.50
2017-11-13T19:49:30.163Z,4.50
2017-11-13T19:51:33.071Z,4.40
2017-11-13T19:53:35.916Z,4.30
2017-11-13T19:55:39.426Z,4.20
2017-11-13T19:57:42.190Z,4.10
2017-11-13T19:59:45.082Z,4.10
2017-11-13T20:01:47.932Z,4.10
2017-11-13T20:03:51.463Z,4.10
2017-11-13T20:05:54.194Z,4.10
2017-11-13T20:07:56.946Z,4.10
2017-11-13T20:10:00.007Z,4.00
2017-11-13T20:12:02.866Z,4.00
2017-11-13T20:14:05.637Z,4.00
2017-11-13T20:16:08.785Z,4.00
2017-11-13T20:18:11.436Z,4.10
2017-11-13T20:20:14.340Z,4.00
2017-11-13T20:22:17.025Z,4.00
2017-11-13T20:24:19.684Z,4.00
2017-11-13T20:26:22.355Z,4.00
2017-11-13T20:28:25.068Z,4.00
2017-11-13T20:30:28.506Z,4.00
2017-11-13T20:32:31.217Z,4.00
2017-11-13T20:34:33.906Z,4.00
2017-11-13T20:36:36.571Z,4.00
2017-11-13T20:38:39.222Z,4.00
2017-11-13T20:40:42.044Z,3.90
2017-11-13T20:42:45.459Z,3.90
2017-11-13T20:44:48.107Z,3.90
2017-11-13T20:46:50.803Z,3.90
2017-11-13T20:48:54.633Z,3.90
2017-11-13T20:50:57.352Z,3.80
2017-11-13T20:53:00.092Z,3.90
2017-11-13T20:55:02.871Z,3.80
2017-11-13T20:57:05.549Z,3.80
2017-11-13T20:59:08.326Z,3.90
2017-11-13T21:01:10.999Z,3.90
2017-11-13T21:03:13.668Z,3.90
2017-11-13T21:05:16.390Z,3.90
2017-11-13T21:07:19.229Z,3.90
2017-11-13T21:09:21.921Z,3.90
2017-11-13T21:11:24.608Z,3.90
2017-11-13T21:13:27.272Z,3.80
2017-11-13T21:15:29.934Z,3.80
2017-11-13T21:17:32.726Z,3.80
2017-11-13T21:19:35.413Z,3.80
2017-11-13T21:21:38.170Z,3.80
2017-11-13T21:23:41.050Z,3.70
2017-11-13T21:25:43.933Z,3.60
2017-11-13T21:27:46.601Z,3.60
2017-11-13T21:29:49.286Z,3.60
2017-11-13T21:31:51.957Z,3.60
2017-11-13T21:33:54.611Z,3.60
2017-11-13T21:35:58.069Z,3.60
2017-11-13T21:38:00.725Z,3.60
2017-11-13T21:42:41.041Z,3.50
2017-11-13T21:44:43.696Z,3.50
2017-11-13T21:46:46.443Z,3.40
2017-11-13T21:48:49.129Z,3.50
2017-11-13T21:50:51.825Z,3.50
2017-11-13T21:52:54.466Z,3.50
2017-11-13T21:54:57.180Z,3.50
2017-11-13T21:56:59.836Z,3.40
2017-11-13T21:59:02.479Z,3.50
2017-11-13T22:01:05.128Z,3.50
2017-11-13T22:03:07.839Z,3.60
2017-11-13T22:05:10.474Z,3.60
2017-11-13T22:07:13.132Z,3.60
2017-11-13T22:09:15.797Z,3.60
2017-11-13T22:11:18.446Z,3.60
2017-11-13T22:13:21.107Z,3.50
2017-11-13T22:15:23.775Z,3.50
2017-11-13T22:17:27.192Z,3.50
2017-11-13T22:19:29.871Z,3.50
2017-11-13T22:21:32.586Z,3.40
2017-11-13T22:23:35.245Z,3.50
2017-11-13T22:25:37.950Z,3.50
2017-11-13T22:27:40.598Z,3.40
2017-11-13T22:29:43.368Z,3.30
2017-11-13T22:31:46.049Z,3.40
2017-11-13T22:33:48.733Z,3.30
2017-11-13T22:35:51.358Z,3.40
2017-11-13T22:37:54.056Z,3.30
2017-11-13T22:39:57.978Z,3.30
2017-11-13T22:42:01.136Z,3.20
2017-11-13T22:44:04.694Z,3.10
2017-11-13T22:46:08.106Z,3.20
2017-11-13T22:48:10.824Z,3.20
2017-11-13T22:50:13.517Z,3.10
2017-11-13T22:52:16.174Z,3.10
2017-11-13T22:54:18.822Z,3.10
2017-11-13T22:56:21.490Z,3.10
2017-11-13T22:58:24.136Z,3.00
2017-11-13T23:00:27.553Z,2.90
2017-11-13T23:02:30.236Z,2.90
2017-11-13T23:04:32.899Z,2.80
2017-11-13T23:06:35.573Z,2.70
2017-11-13T23:08:38.983Z,2.80
2017-11-13T23:10:41.640Z,2.80
2017-11-13T23:12:44.338Z,2.80
2017-11-13T23:14:46.995Z,2.80
2017-11-13T23:16:49.669Z,2.80
2017-11-13T23:18:52.317Z,2.70
2017-11-13T23:20:54.966Z,2.80
2017-11-13T23:22:57.650Z,2.80
2017-11-13T23:25:00.303Z,2.80
2017-11-13T23:27:02.975Z,2.80
2017-11-13T23:29:05.613Z,2.70
2017-11-13T23:31:08.312Z,2.70
2017-11-13T23:33:11.006Z,2.70
2017-11-13T23:35:13.654Z,2.70
2017-11-13T23:37:16.322Z,2.80
2017-11-13T23:39:18.972Z,2.80
2017-11-13T23:41:22.412Z,2.70
2017-11-13T23:43:25.092Z,2.70
2017-11-13T23:45:27.755Z,2.70
2017-11-13T23:47:30.403Z,2.60
2017-11-13T23:49:33.842Z,2.70
2017-11-13T23:51:36.498Z,2.60
2017-11-13T23:53:39.141Z,2.60
2017-11-13T23:55:42.588Z,2.40
2017-11-13T23:57:45.233Z,2.50
2017-11-13T23:59:47.917Z,2.50
